Time;durP1;ratioP1;P1;durP2;ratioP2;P2;SDS_P1;SDS_P2;PMS_P1;PMS_P2;Temp;Humidity;BMP_temperature;BMP_pressure;BME280_temperature;BME280_humidity;BME280_pressure;Samples;Min_cycle;Max_cycle;Signal;HPM_P1;HPM_P2
2023/08/03 00:01:08;;;;;;;23.55;5.15;;;16.20;99.90;;;15.58;100.00;100097.78;4175379;28;20500;-79
2023/08/03 00:03:09;;;;;;;23.73;5.28;;;16.20;99.90;;;15.57;100.00;100104.91;4164053;28;20036;-79
2023/08/03 00:05:09;;;;;;;22.75;4.20;;;16.20;99.90;;;15.57;100.00;100104.91;4152421;28;20505;-79
2023/08/03 00:07:10;;;;;;;18.77;4.78;;;16.20;99.90;;;15.67;100.00;100121.28;4174856;28;20032;-79
2023/08/03 00:09:11;;;;;;;25.00;5.63;;;16.20;99.90;;;15.66;100.00;100116.16;4183264;28;20040;-79
2023/08/03 00:11:12;;;;;;;22.50;5.45;;;16.30;99.90;;;15.66;100.00;100113.50;4173253;28;20040;-79
2023/08/03 00:13:13;;;;;;;28.73;4.70;;;16.30;99.90;;;15.68;100.00;100112.28;4169907;28;20017;-79
2023/08/03 00:15:16;;;;;;;21.13;5.68;;;16.30;99.90;;;15.56;100.00;100107.78;4180340;28;20033;-79
2023/08/03 00:17:17;;;;;;;24.70;5.30;;;16.20;99.90;;;15.45;100.00;100114.47;4176197;28;20028;-79
2023/08/03 00:19:18;;;;;;;21.17;4.18;;;16.10;99.90;;;15.49;100.00;100121.06;4171337;28;20036;-79
2023/08/03 00:21:19;;;;;;;19.23;4.13;;;16.10;99.90;;;15.46;100.00;100124.09;4169837;28;20386;-80
2023/08/03 00:23:20;;;;;;;18.80;3.90;;;16.10;99.90;;;15.36;100.00;100113.88;4169401;28;20026;-79
2023/08/03 00:25:21;;;;;;;21.92;5.35;;;16.00;99.90;;;15.36;100.00;100118.34;4175963;28;20021;-79
2023/08/03 00:27:21;;;;;;;21.63;4.38;;;16.00;99.90;;;15.37;100.00;100122.66;4163706;28;20040;-79
2023/08/03 00:29:22;;;;;;;20.80;4.13;;;16.00;99.90;;;15.34;100.00;100115.91;4173750;28;20048;-79
2023/08/03 00:31:23;;;;;;;24.85;5.95;;;16.00;99.90;;;15.46;100.00;100118.78;4169172;28;20080;-79
2023/08/03 00:33:24;;;;;;;24.40;4.72;;;16.10;99.90;;;15.45;100.00;100117.97;4160205;28;20017;-79
2023/08/03 00:35:25;;;;;;;27.80;6.00;;;16.10;99.90;;;15.53;100.00;100119.63;4167749;28;20022;-79
2023/08/03 00:37:26;;;;;;;26.23;5.25;;;16.10;99.90;;;15.61;100.00;100130.09;4166709;28;20022;-79
2023/08/03 00:39:27;;;;;;;19.35;5.47;;;16.20;99.90;;;15.68;100.00;100124.78;4138905;28;20023;-79
2023/08/03 00:41:28;;;;;;;19.30;4.30;;;16.30;99.90;;;15.71;100.00;100133.13;4168967;28;20083;-79
2023/08/03 00:43:29;;;;;;;22.48;4.95;;;16.30;99.90;;;15.75;100.00;100137.03;4170897;28;20444;-79
2023/08/03 00:45:30;;;;;;;25.48;5.00;;;16.40;99.90;;;15.79;100.00;100140.13;4164460;28;20097;-79
2023/08/03 00:47:31;;;;;;;25.42;5.80;;;16.40;99.90;;;15.84;100.00;100151.78;4169021;28;20037;-79
2023/08/03 00:49:32;;;;;;;28.65;5.82;;;16.40;99.90;;;15.83;100.00;100130.72;4183035;28;20017;-79
2023/08/03 00:51:33;;;;;;;27.73;5.63;;;16.50;99.90;;;15.83;100.00;100138.69;4156284;28;20070;-79
2023/08/03 00:53:34;;;;;;;24.70;6.13;;;16.50;99.90;;;15.76;100.00;100129.88;4168608;28;20099;-79
2023/08/03 00:55:35;;;;;;;24.40;5.70;;;16.40;99.90;;;15.79;100.00;100137.47;4153125;28;20025;-79
2023/08/03 00:57:35;;;;;;;31.27;5.38;;;16.40;99.90;;;15.76;100.00;100132.53;4178641;28;20030;-80
2023/08/03 00:59:36;;;;;;;26.02;5.03;;;16.40;99.90;;;15.74;100.00;100134.59;4178804;28;20040;-80
2023/08/03 01:01:38;;;;;;;17.20;3.72;;;16.40;99.90;;;15.70;100.00;100142.16;4165299;28;20056;-80
2023/08/03 01:03:39;;;;;;;20.45;5.22;;;16.40;99.90;;;15.68;100.00;100149.50;4150484;28;20077;-80
2023/08/03 01:05:40;;;;;;;19.52;4.72;;;16.40;99.90;;;15.71;100.00;100141.13;4174028;28;20053;-79
2023/08/03 01:07:41;;;;;;;16.73;4.45;;;16.40;99.90;;;15.73;100.00;100144.41;4160610;28;20084;-79
2023/08/03 01:09:42;;;;;;;24.92;5.60;;;16.40;99.90;;;15.76;100.00;100151.16;4160473;28;20029;-79
2023/08/03 01:11:43;;;;;;;17.92;4.20;;;16.40;99.90;;;15.76;100.00;100140.53;4169159;28;20030;-80
2023/08/03 01:13:44;;;;;;;20.58;4.85;;;16.40;99.90;;;15.76;100.00;100141.34;4167320;28;20033;-79
2023/08/03 01:15:45;;;;;;;28.75;4.45;;;16.40;99.90;;;15.78;100.00;100154.44;4163762;28;20022;-79
2023/08/03 01:17:45;;;;;;;26.15;5.88;;;16.40;99.90;;;15.76;100.00;100156.47;4172903;28;20485;-79
2023/08/03 01:19:46;;;;;;;19.83;4.82;;;16.40;99.90;;;15.75;100.00;100146.84;4176573;28;20029;-79
2023/08/03 01:21:49;;;;;;;25.30;5.00;;;16.40;99.90;;;15.84;100.00;100157.09;4156347;28;20026;-79
2023/08/03 01:23:50;;;;;;;25.27;7.78;;;16.40;99.90;;;15.81;100.00;100156.69;4153559;28;20034;-79
2023/08/03 01:25:50;;;;;;;27.35;5.15;;;16.40;99.90;;;15.82;100.00;100151.16;4173686;28;20024;-79
2023/08/03 01:27:51;;;;;;;22.42;5.82;;;16.50;99.90;;;15.80;100.00;100147.09;4152441;28;20033;-79
2023/08/03 01:29:52;;;;;;;26.83;5.30;;;16.50;99.90;;;15.80;100.00;100136.44;4174001;28;20080;-79
2023/08/03 01:31:56;;;;;;;26.80;5.28;;;16.40;99.90;;;15.73;100.00;100152.38;4168500;28;20037;-79
2023/08/03 01:33:57;;;;;;;23.92;5.45;;;16.40;99.90;;;15.67;100.00;100147.06;4172280;28;20047;-79
2023/08/03 01:35:58;;;;;;;19.77;4.47;;;16.30;99.90;;;15.61;100.00;100148.69;4169778;28;20017;-79
2023/08/03 01:37:59;;;;;;;21.95;5.28;;;16.30;99.90;;;15.63;100.00;100161.78;4156062;28;20025;-79
2023/08/03 01:40:00;;;;;;;25.65;4.97;;;16.30;99.90;;;15.60;100.00;100151.53;4181566;28;20388;-79
2023/08/03 01:42:01;;;;;;;24.70;5.78;;;16.30;99.90;;;15.62;100.00;100157.50;4155796;28;20080;-79
2023/08/03 01:44:26;;;;;;;16.08;4.53;;;16.30;99.90;;;15.60;100.00;100147.06;4174284;28;20409;-79
2023/08/03 01:46:27;;;;;;;16.65;4.25;;;16.30;99.90;;;15.63;100.00;100156.47;4137514;28;20485;-79
2023/08/03 01:48:28;;;;;;;19.38;4.63;;;16.30;99.90;;;15.60;100.00;100159.53;4178614;28;20032;-79
2023/08/03 01:50:29;;;;;;;25.52;5.45;;;16.30;99.90;;;15.55;100.00;100169.94;4152945;28;20076;-79
2023/08/03 01:52:30;;;;;;;19.85;4.82;;;16.20;99.90;;;15.45;100.00;100171.13;4168507;28;20530;-80
2023/08/03 01:54:31;;;;;;;22.27;5.88;;;16.20;99.90;;;15.38;100.00;100169.50;4158335;28;20065;-80
2023/08/03 01:56:31;;;;;;;24.77;5.30;;;16.10;99.90;;;15.39;100.00;100171.09;4150575;28;20033;-80
2023/08/03 01:58:32;;;;;;;24.20;5.97;;;16.10;99.90;;;15.37;100.00;100176.63;4165351;28;20024;-79
2023/08/03 02:00:33;;;;;;;22.92;5.45;;;16.00;99.90;;;15.37;100.00;100184.59;4178987;28;20033;-79
2023/08/03 02:02:34;;;;;;;26.92;6.60;;;16.00;99.90;;;15.43;100.00;100181.16;4168291;28;20037;-79
2023/08/03 02:04:35;;;;;;;25.30;6.35;;;16.10;99.90;;;15.51;100.00;100180.16;4154779;28;20520;-79
2023/08/03 02:06:36;;;;;;;23.35;5.55;;;16.10;99.90;;;15.46;100.00;100188.72;4173966;28;20104;-80
2023/08/03 02:08:37;;;;;;;21.80;5.38;;;16.10;99.90;;;15.53;100.00;100193.28;4154496;28;20026;-80
2023/08/03 02:10:38;;;;;;;14.43;4.57;;;16.20;99.90;;;15.52;100.00;100181.00;4176302;28;20037;-79
2023/08/03 02:12:39;;;;;;;20.63;4.32;;;16.20;99.90;;;15.55;100.00;100191.22;4168205;28;20034;-79
2023/08/03 02:14:40;;;;;;;19.75;5.43;;;16.20;99.90;;;15.54;100.00;100176.28;4181453;28;20029;-80
2023/08/03 02:16:41;;;;;;;20.20;5.05;;;16.20;99.90;;;15.52;100.00;100175.66;4162822;28;20094;-79
2023/08/03 02:18:41;;;;;;;16.48;4.55;;;16.20;99.90;;;15.56;100.00;100187.56;4182708;28;20401;-79
2023/08/03 02:20:42;;;;;;;19.33;3.85;;;16.20;99.90;;;15.57;100.00;100183.84;4177838;28;20030;-80
2023/08/03 02:22:43;;;;;;;22.20;3.60;;;16.20;99.90;;;15.55;100.00;100188.56;4177412;28;20028;-79
2023/08/03 02:24:44;;;;;;;16.67;4.70;;;16.20;99.90;;;15.54;100.00;100177.09;4172582;28;20033;-80
2023/08/03 02:26:45;;;;;;;15.10;3.90;;;16.20;99.90;;;15.54;100.00;100187.75;4163891;28;20045;-79
2023/08/03 02:28:46;;;;;;;23.67;5.03;;;16.20;99.90;;;15.57;100.00;100175.88;4178492;28;20045;-79
2023/08/03 02:30:46;;;;;;;20.35;5.85;;;16.20;99.90;;;15.55;100.00;100185.91;4177544;28;20029;-80
2023/08/03 02:32:47;;;;;;;17.95;4.68;;;16.20;99.90;;;15.57;100.00;100179.34;4154023;28;20030;-80
2023/08/03 02:34:48;;;;;;;22.25;4.57;;;16.20;99.90;;;15.61;100.00;100180.59;4174557;28;20037;-80
2023/08/03 02:36:49;;;;;;;18.52;4.13;;;16.20;99.90;;;15.54;100.00;100174.44;4162478;28;20018;-80
2023/08/03 02:38:50;;;;;;;22.95;3.78;;;16.20;99.90;;;15.55;100.00;100175.25;4161610;28;20428;-80
2023/08/03 02:40:51;;;;;;;19.02;4.35;;;16.20;99.90;;;15.55;100.00;100177.94;4153097;28;20018;-80
2023/08/03 02:42:52;;;;;;;19.30;4.38;;;16.20;99.90;;;15.58;100.00;100186.31;4177849;28;20468;-80
2023/08/03 02:44:53;;;;;;;17.85;3.80;;;16.20;99.90;;;15.58;100.00;100190.81;4154999;28;20036;-79
2023/08/03 02:46:53;;;;;;;17.70;4.47;;;16.20;99.90;;;15.63;100.00;100191.03;4157997;28;20025;-79
2023/08/03 02:48:54;;;;;;;26.33;5.05;;;16.20;99.90;;;15.57;100.00;100190.00;4171673;28;20033;-79
2023/08/03 02:50:55;;;;;;;18.92;4.05;;;16.20;99.90;;;15.57;100.00;100189.16;4159702;28;20037;-79
2023/08/03 02:52:56;;;;;;;20.33;3.63;;;16.20;99.90;;;15.58;100.00;100186.31;4153169;28;20482;-80
2023/08/03 02:54:57;;;;;;;22.00;5.03;;;16.20;99.90;;;15.52;100.00;100181.81;4182185;28;20025;-79
2023/08/03 02:56:58;;;;;;;16.23;4.00;;;16.20;99.90;;;15.50;100.00;100179.34;4157983;28;20021;-79
2023/08/03 02:58:58;;;;;;;17.67;4.93;;;16.20;99.90;;;15.54;100.00;100184.25;4155413;28;20030;-79
2023/08/03 03:01:00;;;;;;;18.10;4.50;;;16.20;99.90;;;15.51;100.00;100196.13;4178547;28;20033;-79
2023/08/03 03:03:01;;;;;;;18.48;3.85;;;16.10;99.90;;;15.48;100.00;100186.69;4172534;28;20021;-79
2023/08/03 03:05:03;;;;;;;19.35;4.57;;;16.20;99.90;;;15.49;100.00;100193.66;4171955;28;20095;-79
2023/08/03 03:07:04;;;;;;;21.02;5.05;;;16.20;99.90;;;15.62;100.00;100194.72;4172926;28;20396;-79
2023/08/03 03:09:05;;;;;;;16.30;3.60;;;16.20;99.90;;;15.59;100.00;100184.50;4168857;28;20045;-79
2023/08/03 03:11:06;;;;;;;22.83;5.47;;;16.20;99.90;;;15.57;100.00;100184.66;4185290;28;20078;-79
2023/08/03 03:13:07;;;;;;;17.48;4.63;;;16.20;99.90;;;15.54;100.00;100186.91;4174512;28;20021;-80
2023/08/03 03:15:09;;;;;;;23.92;5.82;;;16.20;99.90;;;15.60;100.00;100194.09;4152351;28;20022;-79
2023/08/03 03:17:10;;;;;;;23.88;5.50;;;16.20;99.90;;;15.58;100.00;100193.47;4185613;28;20027;-79
2023/08/03 03:19:11;;;;;;;23.15;5.80;;;16.20;99.90;;;15.57;100.00;100186.50;4186287;28;20028;-79
2023/08/03 03:21:11;;;;;;;18.98;4.63;;;16.20;99.90;;;15.56;100.00;100203.50;4164118;28;20017;-80
2023/08/03 03:23:12;;;;;;;18.63;4.47;;;16.20;99.90;;;15.61;100.00;100207.19;4181411;28;20025;-79
2023/08/03 03:25:13;;;;;;;20.52;4.35;;;16.20;99.90;;;15.61;100.00;100203.72;4166418;28;20022;-79
2023/08/03 03:27:14;;;;;;;26.70;5.45;;;16.20;99.90;;;15.61;100.00;100209.03;4183724;28;20025;-80
2023/08/03 03:29:15;;;;;;;21.95;5.82;;;16.30;99.90;;;15.57;100.00;100197.97;4184467;28;20044;-79
2023/08/03 03:31:16;;;;;;;20.83;5.07;;;16.20;99.90;;;15.61;100.00;100201.03;4161128;28;20048;-79
2023/08/03 03:33:16;;;;;;;21.23;5.20;;;16.20;99.90;;;15.58;100.00;100196.13;4182390;28;20078;-80
2023/08/03 03:35:17;;;;;;;18.08;4.65;;;16.20;99.90;;;15.60;100.00;100196.75;4182724;28;20017;-79
2023/08/03 03:37:18;;;;;;;25.70;4.60;;;16.20;99.90;;;15.55;100.00;100183.25;4173362;28;20481;-80
2023/08/03 03:39:19;;;;;;;20.42;4.53;;;16.20;99.90;;;15.57;100.00;100197.13;4165379;28;20543;-79
2023/08/03 03:41:20;;;;;;;19.92;4.00;;;16.20;99.90;;;15.52;100.00;100188.97;4170133;28;20022;-79
2023/08/03 03:43:20;;;;;;;26.95;5.25;;;16.20;99.90;;;15.46;100.00;100194.03;4154906;28;20073;-79
2023/08/03 03:45:21;;;;;;;27.15;4.78;;;16.20;99.90;;;15.52;100.00;100203.06;4169849;28;20397;-79
2023/08/03 03:47:22;;;;;;;24.42;5.00;;;16.20;99.90;;;15.48;100.00;100188.53;4172201;28;20116;-79
2023/08/03 03:49:23;;;;;;;16.83;5.53;;;16.10;99.90;;;15.48;100.00;100200.00;4186362;28;20052;-79
2023/08/03 03:51:24;;;;;;;21.83;5.85;;;16.10;99.90;;;15.49;100.00;100199.00;4168447;28;20021;-79
2023/08/03 03:53:25;;;;;;;16.60;5.25;;;16.10;99.90;;;15.50;100.00;100205.91;4173787;28;20025;-79
2023/08/03 03:55:26;;;;;;;22.10;4.68;;;16.20;99.90;;;15.53;100.00;100201.25;4165157;28;20026;-79
2023/08/03 03:57:26;;;;;;;21.13;4.72;;;16.20;99.90;;;15.56;100.00;100208.81;4169767;28;20021;-79
2023/08/03 03:59:27;;;;;;;25.25;5.72;;;16.20;99.90;;;15.58;100.00;100209.44;4156666;28;20033;-79
2023/08/03 04:01:28;;;;;;;28.17;5.13;;;16.20;99.90;;;15.54;100.00;100202.88;4173798;28;20035;-79
2023/08/03 04:03:29;;;;;;;20.95;4.53;;;16.20;99.90;;;15.56;100.00;100209.63;4167108;28;20455;-79
2023/08/03 04:05:30;;;;;;;22.02;6.13;;;16.20;99.90;;;15.56;100.00;100216.78;4152010;28;20026;-79
2023/08/03 04:07:31;;;;;;;23.15;5.13;;;16.20;99.90;;;15.57;100.00;100218.41;4159961;28;20484;-79
2023/08/03 04:09:31;;;;;;;22.80;5.15;;;16.20;99.90;;;15.56;100.00;100214.13;4169258;28;20448;-79
2023/08/03 04:11:32;;;;;;;19.52;5.00;;;16.20;99.90;;;15.51;100.00;100206.75;4169299;28;20033;-79
2023/08/03 04:13:34;;;;;;;18.42;4.18;;;16.20;99.90;;;15.60;100.00;100225.97;4169586;28;20080;-79
2023/08/03 04:15:35;;;;;;;23.60;4.70;;;16.20;99.90;;;15.63;100.00;100228.25;4172933;28;20124;-79
2023/08/03 04:17:35;;;;;;;21.85;4.40;;;16.20;99.90;;;15.62;100.00;100230.06;4174363;28;20052;-79
2023/08/03 04:19:36;;;;;;;22.70;4.88;;;16.20;99.90;;;15.60;100.00;100220.66;4169207;28;20551;-79
2023/08/03 04:21:37;;;;;;;26.70;5.63;;;16.30;99.90;;;15.62;100.00;100223.97;4156298;28;20020;-79
2023/08/03 04:23:38;;;;;;;24.45;5.32;;;16.20;99.90;;;15.60;100.00;100223.31;4176049;28;20030;-79
2023/08/03 04:25:39;;;;;;;22.80;4.55;;;16.30;99.90;;;15.60;100.00;100234.78;4169315;28;20022;-79
2023/08/03 04:27:40;;;;;;;17.75;5.07;;;16.20;99.90;;;15.60;100.00;100229.47;4165412;28;20030;-79
2023/08/03 04:29:40;;;;;;;19.90;4.90;;;16.20;99.90;;;15.63;100.00;100220.25;4168997;28;20057;-79
2023/08/03 04:31:41;;;;;;;23.73;4.88;;;16.30;99.90;;;15.57;100.00;100216.56;4175917;28;20037;-79
2023/08/03 04:33:42;;;;;;;19.77;4.18;;;16.20;99.90;;;15.53;100.00;100214.53;4185568;28;20031;-79
2023/08/03 04:35:43;;;;;;;21.33;4.70;;;16.20;99.90;;;15.46;100.00;100214.47;4154622;28;20106;-79
2023/08/03 04:37:44;;;;;;;25.55;5.82;;;16.20;99.90;;;15.42;100.00;100222.03;4151458;28;20014;-79
2023/08/03 04:39:45;;;;;;;23.77;5.28;;;16.10;99.90;;;15.44;100.00;100219.19;4175635;28;20036;-79
2023/08/03 04:41:46;;;;;;;29.52;6.88;;;16.10;99.90;;;15.37;100.00;100221.81;4185477;28;20036;-79
2023/08/03 04:43:47;;;;;;;23.30;4.80;;;16.10;99.90;;;15.38;100.00;100220.78;4154759;28;20033;-79
2023/08/03 04:45:48;;;;;;;22.95;5.43;;;16.00;99.90;;;15.40;100.00;100229.41;4151222;28;20033;-79
2023/08/03 04:47:49;;;;;;;32.53;5.57;;;16.10;99.90;;;15.42;100.00;100223.88;4169067;28;20029;-79
2023/08/03 04:49:49;;;;;;;24.05;4.25;;;16.10;99.90;;;15.39;100.00;100233.06;4151516;28;20045;-79
2023/08/03 04:51:50;;;;;;;19.88;5.55;;;16.10;99.90;;;15.43;100.00;100236.97;4164106;28;20033;-79
2023/08/03 04:53:51;;;;;;;17.38;4.50;;;16.10;99.90;;;15.44;100.00;100243.91;4171300;28;20030;-79
2023/08/03 04:55:52;;;;;;;30.83;4.85;;;16.10;99.90;;;15.44;100.00;100240.44;4161775;28;20014;-79
2023/08/03 04:57:53;;;;;;;17.67;4.90;;;16.10;99.90;;;15.49;100.00;100236.19;4151334;28;20022;-79
2023/08/03 04:59:56;;;;;;;27.20;5.28;;;16.10;99.90;;;15.54;100.00;100237.41;4167363;28;20543;-79
2023/08/03 05:01:57;;;;;;;28.02;5.20;;;16.10;99.90;;;15.57;100.00;100242.34;4168628;28;20091;-79
2023/08/03 05:03:59;;;;;;;22.42;4.88;;;16.20;99.90;;;15.56;100.00;100251.34;4168811;28;20037;-79
2023/08/03 05:06:00;;;;;;;22.60;4.65;;;16.20;99.90;;;15.53;100.00;100247.22;4168780;28;20037;-79
2023/08/03 05:08:01;;;;;;;22.35;5.15;;;16.20;99.90;;;15.55;100.00;100241.72;4146736;28;20034;-79
2023/08/03 05:10:02;;;;;;;21.15;4.55;;;16.20;99.90;;;15.55;100.00;100244.38;4150808;28;20057;-80
2023/08/03 05:12:03;;;;;;;23.48;5.05;;;16.20;99.90;;;15.55;100.00;100249.72;4155967;28;20033;-79
2023/08/03 05:14:04;;;;;;;22.52;4.25;;;16.20;99.90;;;15.56;100.00;100244.16;4168629;28;20041;-80
2023/08/03 05:16:05;;;;;;;19.02;4.78;;;16.20;99.90;;;15.58;100.00;100244.00;4175461;28;20021;-79
2023/08/03 05:18:06;;;;;;;20.67;3.88;;;16.20;99.90;;;15.55;100.00;100239.91;4170555;28;20025;-79
2023/08/03 05:20:08;;;;;;;20.65;4.65;;;16.20;99.90;;;15.60;100.00;100252.56;4155238;28;20030;-79
2023/08/03 05:22:08;;;;;;;21.25;5.32;;;16.20;99.90;;;15.65;100.00;100250.94;4151009;28;20052;-79
2023/08/03 05:24:09;;;;;;;24.38;4.18;;;16.30;99.90;;;15.60;100.00;100255.22;4179076;28;20029;-79
2023/08/03 05:26:10;;;;;;;20.67;4.85;;;16.20;99.90;;;15.59;100.00;100250.97;4184997;28;20046;-79
2023/08/03 05:28:11;;;;;;;15.48;4.18;;;16.30;99.90;;;15.60;100.00;100250.75;4185165;28;20400;-79
2023/08/03 05:30:12;;;;;;;17.35;3.92;;;16.30;99.90;;;15.57;100.00;100247.66;4160189;28;20045;-80
2023/08/03 05:32:13;;;;;;;22.30;4.22;;;16.30;99.90;;;15.61;100.00;100260.38;4168543;28;20037;-79
2023/08/03 05:34:15;;;;;;;17.65;3.50;;;16.30;99.90;;;15.63;100.00;100239.69;4182070;28;20040;-79
2023/08/03 05:36:16;;;;;;;14.07;3.22;;;16.30;99.90;;;15.64;100.00;100245.84;4185300;28;20029;-80
2023/08/03 05:38:16;;;;;;;18.20;5.28;;;16.30;99.90;;;15.64;100.00;100251.16;4185035;28;20025;-79
2023/08/03 05:40:17;;;;;;;13.63;3.83;;;16.30;99.90;;;15.60;100.00;100248.09;4157166;28;20026;-79
2023/08/03 05:42:18;;;;;;;13.85;4.15;;;16.30;99.90;;;15.59;100.00;100253.63;4156006;28;20071;-79
2023/08/03 05:44:19;;;;;;;16.27;4.15;;;16.20;99.90;;;15.59;100.00;100248.28;4154326;28;20032;-80
2023/08/03 05:46:20;;;;;;;20.67;3.78;;;16.30;99.90;;;15.58;100.00;100254.63;4168483;28;20083;-80
2023/08/03 05:48:21;;;;;;;21.38;5.93;;;16.30;99.90;;;15.61;100.00;100249.72;4168442;28;20034;-79
2023/08/03 05:50:22;;;;;;;17.25;3.72;;;16.20;99.90;;;15.59;100.00;100254.41;4165901;28;20036;-80
2023/08/03 05:52:26;;;;;;;16.95;3.50;;;16.20;99.90;;;15.60;100.00;100255.22;4174771;28;20145;-80
2023/08/03 05:54:27;;;;;;;;;;;16.20;99.90;;;15.56;100.00;100256.66;4187800;28;20032;-79
2023/08/03 05:56:28;;;;;;;15.93;3.05;;;16.30;99.90;;;15.59;100.00;100253.63;4153887;28;20451;-80
2023/08/03 05:58:28;;;;;;;19.27;4.40;;;16.30;99.90;;;15.58;100.00;100262.59;4170293;28;20061;-80
2023/08/03 06:00:30;;;;;;;11.10;3.53;;;16.30;99.90;;;15.61;100.00;100265.69;4166709;28;20532;-80
2023/08/03 06:02:34;;;;;;;19.38;4.57;;;16.30;99.90;;;15.62;100.00;100264.63;4156456;28;20030;-80
2023/08/03 06:04:43;;;;;;;13.35;3.50;;;16.30;99.90;;;15.62;100.00;100266.50;4164567;28;20044;-80
2023/08/03 06:06:45;;;;;;;23.90;4.70;;;16.20;99.90;;;15.61;100.00;100267.50;4161484;28;20034;-79
2023/08/03 06:08:52;;;;;;;17.75;4.38;;;16.20;99.90;;;15.60;100.00;100261.38;4163956;28;20030;-79
2023/08/03 06:11:01;;;;;;;12.93;3.33;;;16.20;99.90;;;15.63;100.00;100263.63;4154257;28;20033;-79
2023/08/03 06:13:02;;;;;;;19.60;4.03;;;16.20;99.90;;;15.59;100.00;100266.91;4166848;28;20026;-79
2023/08/03 06:15:04;;;;;;;20.60;4.00;;;16.30;99.90;;;15.61;100.00;100264.84;4153595;28;20434;-79
2023/08/03 06:17:06;;;;;;;20.33;3.90;;;16.30;99.90;;;15.66;100.00;100276.53;4179855;28;20032;-80
2023/08/03 06:19:10;;;;;;;17.63;3.05;;;16.30;99.90;;;15.66;100.00;100283.69;4171365;28;20088;-80
2023/08/03 06:21:12;;;;;;;19.40;3.50;;;16.30;99.90;;;15.64;100.00;100275.91;4153566;28;20030;-79
2023/08/03 06:23:27;;;;;;;16.08;3.75;;;16.30;99.90;;;15.68;100.00;100281.66;4140763;28;20170;-79
2023/08/03 06:25:27;;;;;;;;;;;16.30;99.90;;;15.61;100.00;100281.63;4153786;28;20038;-79
2023/08/03 06:27:28;;;;;;;19.00;3.97;;;16.30;99.90;;;15.69;100.00;100277.97;4169544;28;20395;-79
2023/08/03 06:29:29;;;;;;;15.77;3.55;;;16.30;99.90;;;15.70;100.00;100291.06;4172331;28;20091;-78
2023/08/03 06:31:38;;;;;;;13.48;3.72;;;16.30;99.90;;;15.68;100.00;100284.31;4171199;28;20033;-79
2023/08/03 06:33:39;;;;;;;18.05;3.35;;;16.40;99.90;;;15.71;100.00;100292.69;4162429;28;20025;-78
2023/08/03 06:35:45;;;;;;;20.20;5.10;;;16.40;99.90;;;15.72;100.00;100290.84;4170916;28;20038;-79
2023/08/03 06:37:46;;;;;;;22.25;4.63;;;16.40;99.90;;;15.68;100.00;100289.63;4166649;28;20022;-79
2023/08/03 06:39:50;;;;;;;13.77;3.90;;;16.40;99.90;;;15.73;100.00;100289.84;4159201;28;20029;-79
2023/08/03 06:41:51;;;;;;;;;;;16.40;99.90;;;15.69;100.00;100296.56;4172811;28;20026;-78
2023/08/03 06:43:55;;;;;;;12.70;5.38;;;16.40;99.90;;;15.76;100.00;100295.59;4174473;28;19915;-78
2023/08/03 06:45:56;;;;;;;12.77;3.40;;;16.40;99.90;;;15.82;100.00;100305.44;4153572;28;20025;-78
2023/08/03 06:47:59;;;;;;;14.52;3.83;;;16.40;99.90;;;15.84;100.00;100303.38;4170866;28;20079;-78
2023/08/03 06:49:59;;;;;;;16.65;4.72;;;16.50;99.90;;;15.81;100.00;100303.78;4163191;28;20029;-78
2023/08/03 06:52:00;;;;;;;17.58;3.83;;;16.50;99.90;;;15.85;100.00;100304.19;4153190;28;20033;-78
2023/08/03 06:54:02;;;;;;;13.30;3.50;;;16.50;99.90;;;15.91;100.00;100311.38;4170227;28;20050;-78
2023/08/03 06:56:03;;;;;;;24.25;4.28;;;16.50;99.90;;;15.92;100.00;100313.00;4160473;28;20021;-79
2023/08/03 06:58:04;;;;;;;11.32;3.13;;;16.50;99.90;;;15.95;100.00;100315.25;4170709;28;20034;-78
2023/08/03 07:00:06;;;;;;;18.08;3.17;;;16.60;99.90;;;15.97;100.00;100318.56;4152772;28;20029;-79
2023/08/03 07:02:08;;;;;;;17.00;4.35;;;16.60;99.90;;;15.98;100.00;100315.69;4153128;28;20049;-79
2023/08/03 07:04:09;;;;;;;18.98;4.10;;;16.60;99.90;;;15.99;100.00;100317.34;4170522;28;20030;-79
2023/08/03 07:06:09;;;;;;;13.35;3.05;;;16.60;99.90;;;16.03;100.00;100320.41;4163890;28;20036;-79
2023/08/03 07:08:11;;;;;;;15.57;3.50;;;16.60;99.90;;;16.12;100.00;100327.19;4171239;28;20076;-79
2023/08/03 07:10:11;;;;;;;19.60;4.22;;;16.70;99.90;;;16.12;100.00;100327.19;4186808;28;20037;-79
2023/08/03 07:12:12;;;;;;;13.65;3.60;;;16.70;99.90;;;16.19;100.00;100327.22;4162080;28;20475;-79
2023/08/03 07:14:13;;;;;;;15.35;4.68;;;16.80;99.90;;;16.21;100.00;100331.31;4170303;28;20060;-81
2023/08/03 07:16:14;;;;;;;18.58;4.38;;;16.80;99.90;;;16.23;100.00;100339.06;4149192;28;20025;-81
2023/08/03 07:18:15;;;;;;;12.68;3.22;;;16.90;99.90;;;16.26;100.00;100336.84;4156260;28;20029;-81
2023/08/03 07:20:17;;;;;;;21.80;3.95;;;16.90;99.90;;;16.20;100.00;100336.81;4170426;28;20025;-81
2023/08/03 07:22:18;;;;;;;14.77;4.40;;;16.80;99.90;;;16.27;100.00;100340.31;4163252;28;20026;-80
2023/08/03 07:24:20;;;;;;;16.58;4.35;;;16.90;99.90;;;16.23;100.00;100339.91;4173804;28;20112;-81
2023/08/03 07:26:22;;;;;;;11.05;3.30;;;16.90;99.90;;;16.27;100.00;100351.78;4164671;28;20107;-81
2023/08/03 07:28:23;;;;;;;17.90;3.63;;;16.90;99.90;;;16.25;100.00;100343.16;4170037;28;20029;-80
2023/08/03 07:30:24;;;;;;;15.43;3.58;;;16.90;99.90;;;16.26;100.00;100355.47;4178386;28;20037;-79
2023/08/03 07:32:25;;;;;;;13.40;3.70;;;16.90;99.90;;;16.41;100.00;100353.44;4157153;28;20028;-80
2023/08/03 07:34:26;;;;;;;13.82;3.55;;;17.00;99.90;;;16.51;100.00;100353.88;4152561;28;20038;-81
2023/08/03 07:36:26;;;;;;;11.45;3.55;;;17.10;99.90;;;16.64;100.00;100354.91;4152321;28;20025;-80
2023/08/03 07:38:27;;;;;;;14.25;3.58;;;17.20;99.90;;;16.67;100.00;100351.81;4169713;28;20037;-80
2023/08/03 07:40:28;;;;;;;11.57;2.60;;;17.20;99.90;;;16.72;100.00;100360.03;4182056;28;20124;-80
2023/08/03 07:42:29;;;;;;;16.23;4.50;;;17.30;99.90;;;16.74;100.00;100356.16;4173515;28;20021;-79
2023/08/03 07:44:30;;;;;;;14.38;2.88;;;17.40;99.90;;;16.81;100.00;100369.47;4169972;28;20030;-78
2023/08/03 07:46:31;;;;;;;11.85;3.17;;;17.40;99.90;;;16.80;100.00;100363.31;4175532;28;20021;-80
2023/08/03 07:48:32;;;;;;;16.13;3.38;;;17.40;99.90;;;16.83;100.00;100365.56;4173567;28;20489;-77
2023/08/03 07:50:33;;;;;;;10.77;2.90;;;17.40;99.90;;;16.89;100.00;100363.94;4169622;28;20286;-76
2023/08/03 07:52:34;;;;;;;11.85;2.72;;;17.50;99.90;;;16.90;100.00;100374.41;4158387;28;20044;-76
2023/08/03 07:54:34;;;;;;;20.83;4.13;;;17.50;99.90;;;16.88;100.00;100367.59;4169523;28;20539;-78
2023/08/03 07:56:35;;;;;;;9.85;3.05;;;17.50;99.90;;;16.94;100.00;100374.78;4153081;28;20047;-76
2023/08/03 07:58:36;;;;;;;13.35;2.70;;;17.50;99.90;;;17.08;100.00;100371.09;4184683;28;20504;-76
2023/08/03 08:00:37;;;;;;;12.68;2.78;;;17.60;99.90;;;17.09;100.00;100378.03;4186123;28;20018;-75
2023/08/03 08:02:38;;;;;;;11.57;3.53;;;17.70;99.90;;;17.06;100.00;100373.13;4186103;28;20040;-76
2023/08/03 08:04:39;;;;;;;9.60;2.42;;;17.70;99.90;;;17.00;100.00;100374.78;4160217;28;20017;-76
2023/08/03 08:06:40;;;;;;;8.32;2.30;;;17.80;99.90;;;17.03;100.00;100368.22;4151964;28;20048;-76
2023/08/03 08:08:42;;;;;;;7.88;2.45;;;17.80;99.90;;;16.99;100.00;100385.66;4156172;28;20032;-75
2023/08/03 08:10:42;;;;;;;11.05;2.65;;;17.70;99.90;;;17.11;100.00;100386.66;4169558;28;20065;-75
2023/08/03 08:12:43;;;;;;;6.47;2.38;;;17.70;99.90;;;17.19;100.00;100386.44;4168982;28;20037;-77
2023/08/03 08:14:44;;;;;;;9.98;2.30;;;17.80;99.90;;;17.16;100.00;100384.19;4161826;28;20032;-77